Latest Weather Observations for Christmas Creek

IDW60801

Issued at 11:05 am WST Wednesday 23 July 2014 (issued every 30 minutes, with the page automatically refreshed every 10 minutes)

About weather observations | Map of weather stations | Latest weather observations for WA | Other Formats
Station Details ID: 505049 Name: CHRISTMAS CREEK Lat: -22.36 Lon: 119.65 Height: 437.21 m
Data from the previous 72 hours. | See also: Recent months for locations in Western Australia
Date/Time
WST
Temp
°C
App
Temp
°C
Dew
Point
Rel
Hum
%
Delta-T
°C
Wind Press
QNH
hPa
Press
MSL
hPa
Rain
since 9 am
mm
Dir
 
Spd
km/h
Gust
km/h
Spd
kts
Gust
kts
23/11:00am 15.4 9.6 4.4 48 5.2 SE 24 33 13 18 1021.4 1020.8 0.0
23/10:30am 14.7 9.2 4.1 49 5.0 ESE 22 32 12 17 1022.0 - 0.0
23/10:00am 14.3 8.8 4.2 50 4.7 SE 22 30 12 16 1022.3 1021.8 0.0
23/09:30am 13.5 7.7 4.4 54 4.3 ESE 24 35 13 19 1022.6 - 0.0
23/09:00am 12.5 6.3 4.4 58 3.8 SE 26 39 14 21 1022.5 1022.0 0.0
23/08:30am 11.7 6.3 4.5 61 3.3 SE 22 33 12 18 1022.5 - 0.0
23/08:00am 10.8 6.0 4.9 67 2.7 SE 19 24 10 13 1022.1 1021.5 0.0
23/07:30am 9.7 6.5 5.2 73 2.1 SE 11 17 6 9 1021.6 - 0.0
23/07:00am 8.6 5.5 5.4 80 1.5 SSE 11 15 6 8 1021.1 1020.5 0.0
23/06:30am 8.6 5.4 5.2 79 1.6 SSE 11 15 6 8 1020.7 - 0.0
23/06:00am 9.1 6.0 5.4 77 1.7 SSE 11 15 6 8 1020.3 1019.8 0.0
23/05:30am 9.6 6.5 5.4 75 2.0 SSE 11 17 6 9 1020.1 - 0.0
23/05:00am 10.1 6.5 5.2 71 2.3 SSE 13 20 7 11 1019.9 1019.3 0.0
23/04:30am 11.0 7.4 4.9 66 2.8 SSE 13 20 7 11 1019.6 - 0.0
23/04:00am 10.8 7.7 5.5 70 2.5 SSE 11 17 6 9 1019.6 1019.0 0.0
23/03:30am 10.3 7.6 5.8 73 2.1 SSE 9 13 5 7 1019.6 - 0.0
23/03:00am 10.9 7.4 5.6 70 2.5 SSE 13 17 7 9 1019.6 1019.0 0.0
23/02:30am 11.4 8.0 6.0 69 2.6 S 13 19 7 10 1019.7 - 0.0
23/02:00am 12.1 8.3 5.8 65 3.0 S 15 20 8 11 1019.7 1019.1 0.0
23/01:30am 12.2 8.9 6.3 67 2.9 S 13 17 7 9 1019.7 - 0.0
23/01:00am 12.7 9.3 6.1 64 3.2 S 13 19 7 10 1019.6 1019.0 0.0
23/12:30am 13.4 10.0 6.1 61 3.6 S 13 19 7 10 1019.7 - 0.0
23/12:00am 13.5 10.5 6.1 61 3.6 S 11 17 6 9 1019.7 1019.1 0.0
 
Date/Time
WST
Temp
°C
App
Temp
°C
Dew
Point
Rel
Hum
%
Delta-T
°C
Wind Press
QNH
hPa
Press
MSL
hPa
Rain
since 9 am
mm
Dir
 
Spd
km/h
Gust
km/h
Spd
kts
Gust
kts
22/11:30pm 13.6 11.0 6.3 61 3.6 S 9 11 5 6 1019.7 - 0.0
22/11:00pm 13.8 11.2 6.3 60 3.7 S 9 11 5 6 1019.7 1019.1 0.0
22/10:30pm 13.5 11.1 6.8 64 3.3 S 9 11 5 6 1019.6 - 0.0
22/10:00pm 14.1 12.1 6.3 59 3.8 S 6 7 3 4 1019.5 1018.9 0.0
22/09:30pm 14.5 12.7 7.2 61 3.7 S 6 9 3 5 1019.5 - 0.0
22/09:00pm 15.2 12.9 7.5 60 3.9 S 9 11 5 6 1019.4 1018.8 0.0
22/08:30pm 15.8 13.8 7.1 56 4.4 S 7 11 4 6 1019.2 - 0.0
22/08:00pm 16.8 14.4 6.9 52 5.0 SSE 9 13 5 7 1019.1 1018.5 0.0
22/07:30pm 17.5 15.0 6.7 49 5.5 S 9 15 5 8 1018.7 - 0.0
22/07:00pm 18.1 15.8 7.4 49 5.5 S 9 15 5 8 1018.4 1017.8 0.0
22/06:30pm 18.5 16.2 7.3 48 5.8 SSW 9 13 5 7 1017.9 - 0.0
22/06:00pm 19.6 17.1 6.5 42 6.7 SSW 9 13 5 7 1017.4 1016.8 0.0
22/05:30pm 20.9 18.0 4.9 35 8.0 SW 9 13 5 7 1017.0 - 0.0
22/05:00pm 21.9 17.7 3.7 30 9.0 SSW 15 19 8 10 1016.6 1016.0 0.0
22/04:30pm 22.4 18.5 3.2 28 9.4 S 13 19 7 10 1016.5 - 0.0
22/04:00pm 22.7 18.5 3.8 29 9.4 S 15 24 8 13 1016.3 1015.7 0.0
22/03:30pm 22.7 19.1 5.1 32 9.0 S 13 20 7 11 1016.3 - 0.0
22/03:00pm 22.5 18.6 5.3 32 8.8 S 15 22 8 12 1016.2 1015.5 0.0
22/02:30pm 22.2 19.0 7.0 37 8.0 SSW 13 20 7 11 1016.3 - 0.0
22/02:00pm 21.8 19.6 7.7 40 7.5 SSW 9 17 5 9 1016.4 1015.8 0.0
22/01:30pm 21.6 19.1 8.4 42 7.1 SW 11 20 6 11 1016.6 - 0.0
22/01:00pm 21.4 18.9 9.8 47 6.4 SSW 13 20 7 11 1017.1 1016.5 0.0
22/12:30pm 20.9 18.3 9.5 48 6.2 S 13 20 7 11 1017.6 - 0.0
22/12:00pm 19.9 17.5 11.4 58 4.8 S 15 22 8 12 1018.1 1017.4 0.0
22/11:30am 19.4 17.3 11.3 59 4.5 S 13 19 7 10 1018.6 - 0.0
22/11:00am 18.8 17.1 12.4 66 3.6 S 13 22 7 12 1018.8 1018.2 0.0
22/10:30am 17.9 16.5 12.3 70 3.2 S 11 19 6 10 1019.2 - 0.0
22/10:00am 17.0 16.8 13.6 80 2.0 SSW 7 13 4 7 1019.5 1018.9 0.0
22/09:30am 16.1 15.3 14.1 88 1.2 SW 11 17 6 9 1019.8 - 0.0
22/09:24am 15.9 15.0 13.8 87 1.2 SW 11 20 6 11 1019.8 - 0.0
22/09:00am 15.5 15.3 14.6 94 0.5 SW 9 15 5 8 1019.7 1019.1 16.4
22/08:30am 15.3 14.3 14.7 96 0.4 SW 13 17 7 9 1019.4 - 16.4
22/08:07am 15.5 15.5 15.1 97 0.2 SSW 9 13 5 7 1019.0 - 16.4
22/08:00am 15.6 15.6 15.2 97 0.2 SSW 9 13 5 7 1018.9 1018.3 16.4
22/07:38am 15.7 16.3 15.2 97 0.3 SW 6 7 3 4 1018.6 - 16.2
22/07:30am 15.7 16.1 15.2 97 0.3 SW 7 11 4 6 1018.6 - 16.2
22/07:00am 15.5 16.0 15.1 97 0.2 SW 6 11 3 6 1018.3 1017.7 16.2
22/06:33am 16.2 16.9 15.7 97 0.3 SW 6 9 3 5 1018.1 - 16.2
22/06:30am 16.2 16.9 15.7 97 0.3 SW 6 9 3 5 1017.9 - 16.2
22/06:00am 16.2 16.9 15.7 97 0.3 W 6 7 3 4 1017.8 1017.2 16.2
22/05:51am 16.2 16.9 15.7 97 0.3 WNW 6 7 3 4 1017.6 - 16.2
22/05:48am 16.2 16.9 15.6 96 0.4 WNW 6 7 3 4 1017.6 - 16.2
22/05:30am 16.2 16.8 15.7 97 0.3 NNW 7 11 4 6 1017.6 - 16.0
22/05:25am 16.2 16.8 15.7 97 0.3 NW 7 9 4 5 1017.7 - 15.2
22/05:05am 16.1 16.8 15.6 97 0.3 NNW 6 9 3 5 1017.5 - 14.6
22/05:00am 16.1 16.8 15.6 97 0.3 NNW 6 9 3 5 1017.5 1016.9 14.6
22/04:39am 16.0 16.5 15.6 97 0.2 N 7 11 4 6 1017.3 - 14.6
22/04:30am 16.0 16.7 15.6 97 0.2 N 6 9 3 5 1017.4 - 14.6
22/04:09am 15.9 16.5 15.4 97 0.3 SW 6 7 3 4 1017.4 - 14.2
22/04:00am 16.0 16.7 15.5 97 0.3 WNW 6 7 3 4 1017.6 1017.0 13.8
22/03:45am 15.9 16.0 15.4 97 0.3 N 9 13 5 7 1017.5 - 13.8
22/03:30am 15.8 15.4 15.2 96 0.4 NNW 11 17 6 9 1017.5 - 13.6
22/03:27am 15.8 15.4 15.2 96 0.4 NNW 11 17 6 9 1017.5 - 13.6
22/03:00am 15.9 15.1 15.1 95 0.5 N 13 19 7 10 1017.3 1016.7 13.4
22/02:41am 15.4 15.7 15.0 97 0.2 NNE 7 11 4 6 1017.2 - 13.2
22/02:30am 15.1 14.5 14.7 97 0.2 NE 11 13 6 7 1017.4 - 13.2
22/02:11am 14.7 14.0 14.3 97 0.2 NNE 11 15 6 8 1017.6 - 12.6
22/02:08am 14.6 13.9 14.2 97 0.2 NNE 11 15 6 8 1017.6 - 12.6
22/02:00am 14.6 14.2 14.2 97 0.2 NE 9 11 5 6 1017.6 1017.0 12.2
22/01:30am 14.4 14.0 14.0 97 0.2 NE 9 11 5 6 1017.7 - 10.6
22/01:00am 14.2 14.3 13.8 97 0.2 E 6 11 3 6 1017.6 1017.0 8.4
22/12:38am 14.1 14.1 13.7 97 0.2 SE 6 6 3 3 1017.8 - 6.6
22/12:30am 14.2 14.2 13.7 97 0.3 SSE 6 7 3 4 1017.8 - 6.0
22/12:00am 14.2 13.7 13.7 97 0.3 SW 9 13 5 7 1018.1 1017.4 3.6
 
Date/Time
WST
Temp
°C
App
Temp
°C
Dew
Point
Rel
Hum
%
Delta-T
°C
Wind Press
QNH
hPa
Press
MSL
hPa
Rain
since 9 am
mm
Dir
 
Spd
km/h
Gust
km/h
Spd
kts
Gust
kts
21/11:59pm 14.2 13.7 13.7 97 0.3 SW 9 13 5 7 1018.1 - 3.6
21/11:48pm 14.1 13.5 13.6 97 0.3 WSW 9 17 5 9 1018.2 - 3.6
21/11:30pm 14.3 14.7 13.6 96 0.4 WSW 4 7 2 4 1017.8 - 3.4
21/11:20pm 14.4 14.8 13.8 96 0.3 SW 4 6 2 3 1017.8 - 3.0
21/11:00pm 14.4 15.1 13.4 94 0.6 SSE 2 4 1 2 1017.5 1016.9 2.2
21/10:55pm 14.4 14.7 13.5 94 0.5 SSW 4 7 2 4 1017.6 - 2.0
21/10:30pm 14.5 14.8 13.4 93 0.6 SW 4 7 2 4 1018.1 - 1.2
21/10:24pm 14.5 14.4 13.4 93 0.6 SW 6 9 3 5 1018.1 - 1.2
21/10:13pm 14.6 14.5 13.2 91 0.8 SSW 6 9 3 5 1017.9 - 0.8
21/10:00pm 15.1 14.6 12.8 86 1.3 SSE 7 11 4 6 1017.9 1017.3 0.0
21/09:30pm 15.4 14.4 12.2 81 1.8 S 9 13 5 7 1017.7 - 0.0
21/09:00pm 15.8 14.8 12.3 80 2.0 SSW 9 13 5 7 1018.1 1017.4 0.0
21/08:30pm 16.0 15.4 12.2 78 2.1 SSW 7 9 4 5 1017.8 - 0.0
21/08:00pm 16.8 16.4 12.4 75 2.5 S 6 9 3 5 1017.9 1017.3 0.0
21/07:30pm 16.9 16.8 12.2 74 2.6 SSE 4 7 2 4 1017.8 - 0.0
21/07:00pm 17.0 16.6 12.4 74 2.6 S 6 7 3 4 1017.6 1017.0 0.0
21/06:30pm 17.2 16.6 12.3 73 2.8 SSW 7 9 4 5 1017.2 - 0.0
21/06:00pm 18.1 17.0 12.1 68 3.4 S 9 15 5 8 1016.9 1016.3 0.0
21/05:30pm 19.0 18.7 12.6 66 3.7 SSE 6 9 3 5 1016.8 - 0.0
21/05:00pm 19.3 18.3 12.4 64 3.9 S 9 13 5 7 1016.7 1016.1 0.0
21/04:30pm 19.3 18.4 12.7 65 3.8 S 9 11 5 6 1016.6 - 0.0
21/04:00pm 19.7 19.0 13.3 66 3.7 S 9 13 5 7 1016.6 1016.0 0.0
21/03:30pm 19.9 20.1 14.1 69 3.4 S 6 7 3 4 1016.4 - 0.0
21/03:00pm 20.1 21.1 14.2 69 3.5 WSW 2 6 1 3 1016.5 1015.9 0.0
21/02:30pm 19.6 19.7 13.9 69 3.3 SE 6 7 3 4 1016.7 - 0.0
21/02:00pm 19.5 19.0 13.8 69 3.3 SSE 9 15 5 8 1016.7 1016.1 0.0
21/01:30pm 18.9 18.1 14.0 73 2.9 SSE 11 17 6 9 1016.9 - 0.0
21/01:00pm 18.9 18.2 14.2 74 2.8 S 11 17 6 9 1017.2 1016.6 0.0
21/12:30pm 18.2 18.1 15.0 81 1.9 S 9 15 5 8 1017.8 - 0.0
21/12:00pm 19.3 19.5 14.7 74 2.7 SSE 7 13 4 7 1018.5 1017.9 0.0
21/11:30am 19.4 19.7 14.6 74 2.8 ESE 6 9 3 5 1018.8 - 0.0
21/11:00am 19.3 19.5 14.6 74 2.8 E 7 13 4 7 1019.3 1018.7 0.0
21/10:30am 19.3 20.0 14.5 74 2.8 NE 4 7 2 4 1019.8 - 0.0
21/10:00am 18.4 18.4 14.2 76 2.5 ENE 7 11 4 6 1020.1 1019.5 0.0
21/09:30am 17.6 17.2 12.9 74 2.7 ENE 7 11 4 6 1020.4 - 0.0
21/09:00am 16.8 14.6 9.3 61 4.0 ENE 11 17 6 9 1020.2 1019.7 0.2
21/08:30am 16.1 14.3 8.0 58 4.2 ESE 7 11 4 6 1020.3 - 0.2
21/08:00am 16.2 14.2 7.0 54 4.6 ESE 7 11 4 6 1020.1 1019.5 0.2
21/07:30am 16.0 14.6 7.2 56 4.5 ESE 4 7 2 4 1019.9 - 0.2
21/07:00am 15.7 14.1 7.9 59 4.0 SE 6 7 3 4 1019.6 1019.0 0.2
21/06:30am 15.9 14.7 9.7 66 3.3 SE 6 9 3 5 1019.2 - 0.2
21/06:00am 16.0 15.8 11.7 75 2.4 ESE 4 7 2 4 1019.2 1018.6 0.2
21/05:30am 15.8 15.8 12.5 81 1.9 ENE 4 6 2 3 1019.1 - 0.2
21/05:00am 15.9 16.1 12.9 82 1.7 N 4 6 2 3 1019.0 1018.4 0.2
21/04:30am 15.7 16.0 12.2 80 2.0 ENE 2 4 1 2 1018.9 - 0.2
21/04:00am 15.4 15.7 12.3 82 1.7 W 2 4 1 2 1018.8 1018.2 0.2
21/03:30am 15.5 15.5 12.4 82 1.7 SSE 4 6 2 3 1018.6 - 0.2
21/03:00am 15.5 15.4 13.2 86 1.3 SSE 6 7 3 4 1018.4 1017.8 0.2
21/02:30am 16.1 16.6 12.8 81 1.9 E 2 4 1 2 1018.6 - 0.2
21/02:00am 16.2 16.5 13.3 83 1.7 E 4 4 2 2 1018.7 1018.1 0.2
21/01:30am 16.1 16.0 13.2 83 1.7 S 6 9 3 5 1018.6 - 0.2
21/01:00am 16.8 16.8 13.6 81 1.8 WSW 6 9 3 5 1018.8 1018.2 0.2
21/12:30am 17.1 16.6 13.7 80 2.0 NNW 9 13 5 7 1018.7 - 0.2
21/12:00am 17.2 17.0 13.5 79 2.1 NE 7 13 4 7 1018.4 1017.8 0.2
 
Date/Time
WST
Temp
°C
App
Temp
°C
Dew
Point
Rel
Hum
%
Delta-T
°C
Wind Press
QNH
hPa
Press
MSL
hPa
Rain
since 9 am
mm
Dir
 
Spd
km/h
Gust
km/h
Spd
kts
Gust
kts
20/11:30pm 17.4 17.2 13.5 78 2.2 NNW 7 9 4 5 1019.0 - 0.2
20/11:00pm 17.9 17.3 13.4 75 2.6 N 9 11 5 6 1019.0 1018.4 0.2
20/10:30pm 18.1 16.9 12.9 71 3.0 N 11 15 6 8 1019.1 - 0.2
20/10:00pm 18.3 16.4 10.6 61 4.2 N 11 13 6 7 1019.4 1018.8 0.2
20/09:30pm 18.5 16.0 8.3 51 5.4 N 11 15 6 8 1019.6 - 0.2
20/09:00pm 18.4 15.6 8.6 53 5.2 N 13 17 7 9 1019.6 1019.0 0.2
20/08:30pm 18.0 16.8 9.4 57 4.6 ENE 6 7 3 4 1019.2 - 0.2
20/08:00pm 18.8 18.4 11.2 61 4.2 E 4 4 2 2 1018.9 1018.3 0.2
20/07:30pm 19.1 17.8 9.1 52 5.4 E 6 7 3 4 1019.1 - 0.2
20/07:00pm 19.4 18.5 9.4 52 5.4 SE 4 6 2 3 1018.9 1018.3 0.2
20/06:30pm 20.3 19.8 9.2 49 6.0 SSW 2 6 1 3 1018.4 - 0.2
20/06:00pm 20.7 19.0 6.1 38 7.5 SSW 4 7 2 4 1017.8 1017.2 0.2
20/05:30pm 21.8 19.6 6.0 35 8.1 SSW 7 9 4 5 1017.6 - 0.2
20/05:00pm 22.5 20.2 4.6 31 9.0 SSW 6 7 3 4 1017.5 1016.9 0.2
20/04:30pm 23.4 21.5 4.8 30 9.5 SW 4 6 2 3 1017.3 - 0.2
20/04:00pm 23.1 20.7 4.4 29 9.4 SW 6 9 3 5 1017.3 1016.7 0.2
20/03:30pm 23.6 21.8 5.2 30 9.4 S 4 7 2 4 1017.3 - 0.2
20/03:00pm 23.1 20.8 4.8 30 9.3 N 6 7 3 4 1017.2 1016.6 0.2
20/02:30pm 22.2 20.3 5.1 33 8.7 NNE 4 9 2 5 1017.2 - 0.2
20/02:00pm 22.1 19.9 5.3 33 8.5 S 6 15 3 8 1017.4 1016.8 0.2
20/01:30pm 21.6 18.9 5.6 35 8.2 SSW 9 17 5 9 1017.6 - 0.2
20/01:00pm 21.5 19.0 6.7 38 7.7 S 9 17 5 9 1018.1 1017.4 0.2
20/12:30pm 21.1 18.6 8.4 44 6.8 S 11 19 6 10 1018.3 - 0.2
20/12:00pm 20.6 18.4 9.5 49 6.0 SSE 11 20 6 11 1018.8 1018.2 0.2
20/11:30am 19.5 17.6 10.4 55 5.0 S 11 19 6 10 1019.3 - 0.2

Other Formats:

Comma delimited format used in spreadsheet applications
http://www.bom.gov.au/fwo/IDW60801/IDW60801.99737.axf

JavaScript Object Notation format (JSON) in row-major order
http://www.bom.gov.au/fwo/IDW60801/IDW60801.99737.json